Time;durP1;ratioP1;P1;durP2;ratioP2;P2;SDS_P1;SDS_P2;PMS_P1;PMS_P2;Temp;Humidity;BMP_temperature;BMP_pressure;BME280_temperature;BME280_humidity;BME280_pressure;Samples;Min_cycle;Max_cycle;Signal;HPM_P1;HPM_P2
2023/10/15 00:01:27;;;;;;;1999.90;999.90;;;8.90;99.90;;;;;;5095096;28;20435;-67
2023/10/15 00:03:53;;;;;;;1999.90;999.90;;;8.90;99.90;;;;;;5095025;28;20921;-67
2023/10/15 00:06:19;;;;;;;1999.90;999.90;;;8.90;99.90;;;;;;5094954;28;20890;-66
2023/10/15 00:08:45;;;;;;;1999.90;999.90;;;8.80;99.90;;;;;;5095087;28;20245;-66
2023/10/15 00:11:14;;;;;;;1999.90;999.90;;;8.80;99.90;;;;;;5094819;28;20204;-67
2023/10/15 00:13:39;;;;;;;1999.90;999.90;;;8.80;99.90;;;;;;5094998;28;20173;-67
2023/10/15 00:16:06;;;;;;;1999.90;999.90;;;8.70;99.90;;;;;;5094803;28;20917;-66
2023/10/15 00:18:32;;;;;;;1999.90;999.90;;;8.70;99.90;;;;;;5094870;28;20225;-66
2023/10/15 00:21:11;;;;;;;1999.90;999.90;;;8.70;99.90;;;;;;5094756;28;21116;-67
2023/10/15 00:23:37;;;;;;;1999.90;999.90;;;8.70;99.90;;;;;;5094900;28;20177;-67
2023/10/15 00:26:04;;;;;;;1999.90;999.90;;;8.60;99.90;;;;;;5094629;28;20885;-67
2023/10/15 00:28:30;;;;;;;1999.90;999.90;;;8.60;99.90;;;;;;5094501;28;20172;-68
2023/10/15 00:30:56;;;;;;;1999.90;999.90;;;8.50;99.90;;;;;;5094454;28;20429;-67
2023/10/15 00:33:22;;;;;;;1999.90;999.90;;;8.50;99.90;;;;;;5094571;28;20156;-66
2023/10/15 00:35:53;;;;;;;1999.90;999.90;;;8.50;99.90;;;;;;5094472;28;20188;-67
2023/10/15 00:38:19;;;;;;;1999.90;999.90;;;8.50;99.90;;;;;;5094415;28;20209;-67
2023/10/15 00:40:46;;;;;;;1999.90;999.90;;;8.40;99.90;;;;;;5094097;28;20844;-67
2023/10/15 00:43:17;;;;;;;1999.90;999.90;;;8.50;99.90;;;;;;5094289;28;20175;-67
2023/10/15 00:45:46;;;;;;;1999.90;999.90;;;8.50;99.90;;;;;;5094176;28;20455;-68
2023/10/15 00:48:22;;;;;;;1999.90;999.90;;;8.50;99.90;;;;;;5094039;28;20403;-67
2023/10/15 00:50:48;;;;;;;1999.90;999.90;;;8.10;99.90;;;;;;5094267;28;20397;-67
2023/10/15 00:53:22;;;;;;;1999.90;999.90;;;8.50;99.90;;;;;;5094175;28;20818;-67
2023/10/15 00:56:08;;;;;;;1999.90;999.90;;;8.40;99.90;;;;;;5094099;28;20893;-67
2023/10/15 00:58:38;;;;;;;1999.90;999.90;;;8.40;99.90;;;;;;5094073;28;20403;-66
2023/10/15 01:03:57;;;;;;;1999.90;999.90;;;8.40;99.90;;;;;;5094404;28;20446;-67
2023/10/15 01:06:35;;;;;;;1999.90;999.90;;;8.40;99.90;;;;;;5093915;28;20812;-68
2023/10/15 01:09:08;;;;;;;1999.90;999.90;;;8.40;99.90;;;;;;5093765;28;20728;-66
2023/10/15 01:11:38;;;;;;;1999.90;999.90;;;8.30;99.90;;;;;;5093729;28;20473;-67
2023/10/15 01:14:05;;;;;;;1999.90;999.90;;;8.30;99.90;;;;;;5093776;28;20409;-67
2023/10/15 01:16:35;;;;;;;1999.90;999.90;;;8.40;99.90;;;;;;5093651;28;20557;-67
2023/10/15 01:21:43;;;;;;;1999.90;999.90;;;8.30;99.90;;;;;;5093650;28;20453;-67
2023/10/15 01:24:18;;;;;;;1999.90;999.90;;;8.20;99.90;;;;;;5093718;28;20398;-67
2023/10/15 01:26:51;;;;;;;1999.90;999.90;;;8.20;99.90;;;;;;5093491;28;20456;-67
2023/10/15 01:29:20;;;;;;;1999.90;999.90;;;8.20;99.90;;;;;;5093260;28;20423;-67
2023/10/15 01:31:51;;;;;;;1999.90;999.90;;;8.20;99.90;;;;;;5093561;28;20921;-67
2023/10/15 01:34:21;;;;;;;1999.90;999.90;;;8.20;99.90;;;;;;5093563;28;20480;-67
2023/10/15 01:36:47;;;;;;;1999.90;999.90;;;8.20;99.90;;;;;;5093470;28;20418;-66
2023/10/15 01:39:21;;;;;;;1999.90;999.90;;;8.20;99.90;;;;;;5093190;28;20435;-66
2023/10/15 01:41:55;;;;;;;1999.90;999.90;;;8.20;99.90;;;;;;5093185;28;20478;-67
2023/10/15 01:44:20;;;;;;;1999.90;999.90;;;8.20;99.90;;;;;;5093171;28;20460;-67
2023/10/15 01:47:00;;;;;;;1999.90;999.90;;;8.20;99.90;;;;;;5093048;28;20458;-67
2023/10/15 01:49:33;;;;;;;1999.90;999.90;;;8.20;99.90;;;;;;5092960;28;20204;-68
2023/10/15 01:52:09;;;;;;;1999.90;999.90;;;8.20;99.90;;;;;;5092325;28;20442;-67
2023/10/15 01:54:37;;;;;;;1999.90;999.90;;;8.20;99.90;;;;;;5093012;28;20948;-67
2023/10/15 01:57:06;;;;;;;1999.90;999.90;;;8.10;99.90;;;;;;5093121;28;20826;-66
2023/10/15 01:59:44;;;;;;;1999.90;999.90;;;8.10;99.90;;;;;;5092674;28;20390;-67
2023/10/15 02:02:15;;;;;;;1999.90;999.90;;;8.10;99.90;;;;;;5092821;28;20502;-68
2023/10/15 02:04:44;;;;;;;1999.90;999.90;;;8.10;99.90;;;;;;5092750;28;20491;-67
2023/10/15 02:07:13;;;;;;;1999.90;999.90;;;8.10;99.90;;;;;;5092783;28;20405;-68
2023/10/15 02:09:39;;;;;;;1999.90;999.90;;;8.10;99.90;;;;;;5092676;28;20844;-66
2023/10/15 02:12:07;;;;;;;1999.90;999.90;;;8.20;99.90;;;;;;5092497;28;20540;-67
2023/10/15 02:14:33;;;;;;;1999.90;999.90;;;8.10;99.90;;;;;;5092715;28;20173;-67
2023/10/15 02:16:59;;;;;;;1999.90;999.90;;;8.10;99.90;;;;;;5092586;28;20402;-66
2023/10/15 02:19:35;;;;;;;1999.90;999.90;;;8.10;99.90;;;;;;5092571;28;20409;-67
2023/10/15 02:22:07;;;;;;;1999.90;999.90;;;8.10;99.90;;;;;;5092509;28;20424;-67
2023/10/15 02:24:34;;;;;;;1999.90;999.90;;;8.00;99.90;;;;;;5092423;28;20461;-68
2023/10/15 02:27:06;;;;;;;1999.90;999.90;;;8.00;99.90;;;;;;5092438;28;20456;-66
2023/10/15 02:29:35;;;;;;;1999.90;999.90;;;8.00;99.90;;;;;;5092183;28;21107;-66
2023/10/15 02:32:08;;;;;;;1999.90;999.90;;;8.00;99.90;;;;;;5092315;28;20877;-67
2023/10/15 02:34:40;;;;;;;1999.90;999.90;;;8.00;99.90;;;;;;5092307;28;20414;-65
2023/10/15 02:37:10;;;;;;;1999.90;999.90;;;8.00;99.90;;;;;;5092357;28;20414;-66
2023/10/15 02:39:39;;;;;;;1999.90;999.90;;;8.00;99.90;;;;;;5092067;28;20869;-65
2023/10/15 02:42:05;;;;;;;1999.90;999.90;;;8.00;99.90;;;;;;5092069;28;20425;-67
2023/10/15 02:44:33;;;;;;;1999.90;999.90;;;8.00;99.90;;;;;;5092167;28;20417;-68
2023/10/15 02:49:51;;;;;;;1999.90;999.90;;;8.00;99.90;;;;;;5092217;28;20388;-67
2023/10/15 02:52:21;;;;;;;1999.90;999.90;;;8.00;99.90;;;;;;5091916;28;20425;-67
2023/10/15 02:54:47;;;;;;;1999.90;999.90;;;8.00;99.90;;;;;;5092227;28;20445;-68
2023/10/15 02:57:16;;;;;;;1999.90;999.90;;;8.10;99.90;;;;;;5092134;28;20404;-66
2023/10/15 02:59:52;;;;;;;1999.90;999.90;;;8.20;99.90;;;;;;5091825;28;20578;-67
2023/10/15 03:02:21;;;;;;;1999.90;999.90;;;8.30;99.90;;;;;;5091954;28;20841;-66
2023/10/15 03:04:55;;;;;;;1999.90;999.90;;;8.30;99.90;;;;;;5091747;28;20412;-66
2023/10/15 03:07:30;;;;;;;1999.90;999.90;;;8.30;99.90;;;;;;5091955;28;20430;-66
2023/10/15 03:09:57;;;;;;;1999.90;999.90;;;8.30;99.90;;;;;;5091540;28;20919;-67
2023/10/15 03:12:23;;;;;;;1999.90;999.90;;;8.30;99.90;;;;;;5091770;28;20784;-67
2023/10/15 03:14:51;;;;;;;1999.90;999.90;;;8.30;99.90;;;;;;5091812;28;20404;-67
2023/10/15 03:17:29;;;;;;;1999.90;999.90;;;8.30;99.90;;;;;;5091835;28;21096;-66
2023/10/15 03:20:10;;;;;;;1999.90;999.90;;;8.40;99.90;;;;;;5091579;28;20911;-67
2023/10/15 03:22:37;;;;;;;1999.90;999.90;;;8.50;99.90;;;;;;5091857;28;20426;-67
2023/10/15 03:25:04;;;;;;;1999.90;999.90;;;8.50;99.90;;;;;;5091601;28;20487;-67
2023/10/15 03:27:32;;;;;;;1999.90;999.90;;;8.50;99.90;;;;;;5091699;28;20400;-66
2023/10/15 03:29:58;;;;;;;1999.90;999.90;;;8.50;99.90;;;;;;5091428;28;20394;-66
2023/10/15 03:32:31;;;;;;;1999.90;999.90;;;8.50;99.90;;;;;;5091629;28;20422;-68
2023/10/15 03:35:04;;;;;;;1999.90;999.90;;;8.50;99.90;;;;;;5091831;28;20180;-67
2023/10/15 03:37:30;;;;;;;1999.90;999.90;;;8.40;99.90;;;;;;5091525;28;20413;-67
2023/10/15 03:39:56;;;;;;;1999.90;999.90;;;8.40;99.90;;;;;;5091571;28;20410;-68
2023/10/15 03:42:28;;;;;;;1999.90;999.90;;;8.30;99.90;;;;;;5091392;28;20925;-68
2023/10/15 03:44:59;;;;;;;1999.90;999.90;;;8.30;99.90;;;;;;5091758;28;20265;-66
2023/10/15 03:47:25;;;;;;;1999.90;999.90;;;8.30;99.90;;;;;;5091678;28;20826;-68
2023/10/15 03:49:51;;;;;;;1999.90;999.90;;;8.20;99.90;;;;;;5091303;28;20950;-68
2023/10/15 03:52:21;;;;;;;1999.90;999.90;;;8.20;99.90;;;;;;5091432;28;20432;-67
2023/10/15 03:54:50;;;;;;;1999.90;999.90;;;8.30;99.90;;;;;;5091450;28;20429;-67
2023/10/15 03:57:27;;;;;;;1999.90;999.90;;;8.20;99.90;;;;;;5091372;28;20409;-68
2023/10/15 03:59:53;;;;;;;1999.90;999.90;;;8.20;99.90;;;;;;5091225;28;20898;-67
2023/10/15 04:02:26;;;;;;;1999.90;999.90;;;8.20;99.90;;;;;;5091237;28;20435;-67
2023/10/15 04:05:08;;;;;;;1999.90;999.90;;;8.20;99.90;;;;;;5091380;28;20627;-69
2023/10/15 04:07:39;;;;;;;1999.90;999.90;;;8.20;99.90;;;;;;5091285;28;20399;-67
2023/10/15 04:10:08;;;;;;;1999.90;999.90;;;8.30;99.90;;;;;;5090969;28;20402;-67
2023/10/15 04:12:35;;;;;;;1999.90;999.90;;;8.30;99.90;;;;;;5091333;28;20422;-67
2023/10/15 04:15:14;;;;;;;1999.90;999.90;;;8.30;99.90;;;;;;5091319;28;20405;-67
2023/10/15 04:17:41;;;;;;;1999.90;999.90;;;8.30;99.90;;;;;;5094917;28;20413;-67
2023/10/15 04:20:07;;;;;;;1999.90;999.90;;;8.20;99.90;;;;;;5094599;28;20401;-67
2023/10/15 04:22:36;;;;;;;1999.90;999.90;;;8.30;99.90;;;;;;5094918;28;20641;-66
2023/10/15 04:25:06;;;;;;;1999.90;999.90;;;8.20;99.90;;;;;;5094799;28;20451;-66
2023/10/15 04:27:34;;;;;;;1999.90;999.90;;;8.30;99.90;;;;;;5094778;28;20397;-67
2023/10/15 04:30:00;;;;;;;1999.90;999.90;;;8.30;99.90;;;;;;5094414;28;20398;-66
2023/10/15 04:35:25;;;;;;;1999.90;999.90;;;8.20;99.90;;;;;;5094830;28;20414;-67
2023/10/15 04:37:52;;;;;;;1999.90;999.90;;;8.30;99.90;;;;;;5094555;28;20397;-67
2023/10/15 04:40:23;;;;;;;1999.90;999.90;;;8.30;99.90;;;;;;5094200;28;20463;-66
2023/10/15 04:42:49;;;;;;;1999.90;999.90;;;8.20;99.90;;;;;;5094281;28;20477;-68
2023/10/15 04:45:35;;;;;;;1999.90;999.90;;;8.30;99.90;;;;;;5094325;28;20453;-66
2023/10/15 04:48:01;;;;;;;1999.90;999.90;;;8.30;99.90;;;;;;5094352;28;20397;-68
2023/10/15 04:50:35;;;;;;;1999.90;999.90;;;8.20;99.90;;;;;;5094308;28;20431;-68
2023/10/15 04:53:14;;;;;;;1999.90;999.90;;;8.20;99.90;;;;;;5094273;28;20394;-65
2023/10/15 04:55:43;;;;;;;1999.90;999.90;;;8.20;99.90;;;;;;5094371;28;20398;-66
2023/10/15 04:58:10;;;;;;;1999.90;999.90;;;8.20;99.90;;;;;;5093924;28;20965;-68
2023/10/15 05:00:47;;;;;;;1999.90;999.90;;;8.00;99.90;;;;;;5093995;28;20406;-65
2023/10/15 05:03:14;;;;;;;1999.90;999.90;;;8.10;99.90;;;;;;5094109;28;20779;-67
2023/10/15 05:05:42;;;;;;;1999.90;999.90;;;8.00;99.90;;;;;;5093854;28;20446;-66
2023/10/15 05:08:11;;;;;;;1999.90;999.90;;;8.10;99.90;;;;;;5093888;28;20776;-67
2023/10/15 05:10:38;;;;;;;1999.90;999.90;;;8.10;99.90;;;;;;5093853;28;20783;-67
2023/10/15 05:13:04;;;;;;;1999.90;999.90;;;8.20;99.90;;;;;;5094018;28;20446;-66
2023/10/15 05:15:30;;;;;;;1999.90;999.90;;;8.20;99.90;;;;;;5093865;28;20406;-66
2023/10/15 05:17:55;;;;;;;1999.90;999.90;;;8.10;99.90;;;;;;5093716;28;20417;-67
2023/10/15 05:20:21;;;;;;;1999.90;999.90;;;8.10;99.90;;;;;;5093494;28;20583;-66
2023/10/15 05:22:48;;;;;;;1999.90;999.90;;;8.10;99.90;;;;;;5093711;28;20193;-65
2023/10/15 05:25:19;;;;;;;1999.90;999.90;;;8.10;99.90;;;;;;5093568;28;20288;-68
2023/10/15 05:27:45;;;;;;;1999.90;999.90;;;8.10;99.90;;;;;;5092499;28;20409;-66
2023/10/15 05:30:12;;;;;;;1999.90;999.90;;;8.10;99.90;;;;;;5093414;28;20408;-66
2023/10/15 05:32:38;;;;;;;1999.90;999.90;;;8.00;99.90;;;;;;5093354;28;20433;-69
2023/10/15 05:35:08;;;;;;;1999.90;999.90;;;8.00;99.90;;;;;;5093386;28;20408;-65
2023/10/15 05:37:36;;;;;;;1999.90;999.90;;;7.90;99.90;;;;;;5093251;28;20784;-66
2023/10/15 05:40:06;;;;;;;1999.90;999.90;;;7.80;99.90;;;;;;5093067;28;20788;-67
2023/10/15 05:42:32;;;;;;;1999.90;999.90;;;7.80;99.90;;;;;;5093180;28;20441;-66
2023/10/15 05:44:57;;;;;;;1999.90;999.90;;;7.80;99.90;;;;;;5093223;28;20411;-66
2023/10/15 05:47:23;;;;;;;1999.90;999.90;;;7.80;99.90;;;;;;5093153;28;20480;-66
2023/10/15 05:49:49;;;;;;;1999.90;999.90;;;7.80;99.90;;;;;;5092923;28;20254;-67
2023/10/15 05:52:15;;;;;;;1999.90;999.90;;;7.80;99.90;;;;;;5093140;28;20198;-66
2023/10/15 05:54:41;;;;;;;1999.90;999.90;;;7.70;99.90;;;;;;5093128;28;20397;-67
2023/10/15 05:57:07;;;;;;;1999.90;999.90;;;7.50;99.90;;;;;;5092887;28;20676;-66
2023/10/15 05:59:36;;;;;;;1999.90;999.90;;;7.50;99.90;;;;;;5092806;28;20460;-67
2023/10/15 06:02:04;;;;;;;1999.90;999.90;;;7.50;99.90;;;;;;5092800;28;20428;-67
2023/10/15 06:04:32;;;;;;;1999.90;999.90;;;7.50;99.90;;;;;;5092830;28;20469;-67
2023/10/15 06:06:58;;;;;;;1999.90;999.90;;;7.50;99.90;;;;;;5092794;28;20460;-69
2023/10/15 06:09:24;;;;;;;1999.90;999.90;;;7.50;99.90;;;;;;5092580;28;20397;-67
2023/10/15 06:11:50;;;;;;;1999.90;999.90;;;7.40;99.90;;;;;;5092576;28;20202;-66
2023/10/15 06:14:16;;;;;;;1999.90;999.90;;;7.50;99.90;;;;;;5092742;28;20171;-67
2023/10/15 06:16:42;;;;;;;1999.90;999.90;;;7.50;99.90;;;;;;5092562;28;20419;-68
2023/10/15 06:19:09;;;;;;;1999.90;999.90;;;7.50;99.90;;;;;;5092343;28;20666;-67
2023/10/15 06:21:35;;;;;;;1999.90;999.90;;;7.60;99.90;;;;;;5092575;28;20226;-68
2023/10/15 06:24:01;;;;;;;1999.90;999.90;;;7.50;99.90;;;;;;5092523;28;20520;-66
2023/10/15 06:26:28;;;;;;;1999.90;999.90;;;7.50;99.90;;;;;;5092270;28;20492;-67
2023/10/15 06:28:53;;;;;;;1999.90;999.90;;;7.50;99.90;;;;;;5092186;28;20409;-67
2023/10/15 06:31:19;;;;;;;1999.90;999.90;;;7.50;99.90;;;;;;5092252;28;20566;-67
2023/10/15 06:33:44;;;;;;;1999.90;999.90;;;7.50;99.90;;;;;;5092360;28;20166;-69
2023/10/15 06:36:10;;;;;;;1999.90;999.90;;;7.60;99.90;;;;;;5092207;28;20183;-66
2023/10/15 06:38:36;;;;;;;1999.90;999.90;;;7.60;99.90;;;;;;5091764;28;20194;-67
2023/10/15 06:41:01;;;;;;;1999.90;999.90;;;7.50;99.90;;;;;;5092126;28;20220;-66
2023/10/15 06:43:28;;;;;;;1999.90;999.90;;;7.50;99.90;;;;;;5092225;28;20186;-68
2023/10/15 06:45:53;;;;;;;1999.90;999.90;;;7.60;99.90;;;;;;5092027;28;20723;-67
2023/10/15 06:48:22;;;;;;;1999.90;999.90;;;7.60;99.90;;;;;;5091959;28;20488;-67
2023/10/15 06:50:48;;;;;;;1999.90;999.90;;;7.70;99.90;;;;;;5092139;28;20594;-67
2023/10/15 06:53:13;;;;;;;1999.90;999.90;;;7.70;99.90;;;;;;5092056;28;20394;-67
2023/10/15 06:55:39;;;;;;;1999.90;999.90;;;7.80;99.90;;;;;;5092024;28;20849;-67
2023/10/15 06:58:05;;;;;;;1999.90;999.90;;;7.80;99.90;;;;;;5091856;28;20172;-66
2023/10/15 07:00:36;;;;;;;1999.90;999.90;;;7.80;99.90;;;;;;5091962;28;20170;-66
2023/10/15 07:03:02;;;;;;;1999.90;999.90;;;7.80;99.90;;;;;;5091917;28;20177;-67
2023/10/15 07:05:28;;;;;;;1999.90;999.90;;;7.80;99.90;;;;;;5091926;28;20445;-68
2023/10/15 07:08:00;;;;;;;1999.90;999.90;;;7.90;99.90;;;;;;5091965;28;20635;-67
2023/10/15 07:10:26;;;;;;;1999.90;999.90;;;7.90;99.90;;;;;;5091875;28;20963;-68
2023/10/15 07:12:51;;;;;;;1999.90;999.90;;;8.00;99.90;;;;;;5091747;28;20421;-68
2023/10/15 07:15:23;;;;;;;1999.90;999.90;;;8.10;99.90;;;;;;5092071;28;20405;-66
2023/10/15 07:17:50;;;;;;;1999.90;999.90;;;8.10;99.90;;;;;;5091976;28;20592;-67
2023/10/15 07:20:18;;;;;;;1999.90;999.90;;;8.10;99.90;;;;;;5091662;28;20409;-67
2023/10/15 07:22:51;;;;;;;1999.90;999.90;;;8.00;99.90;;;;;;5091663;28;20433;-68
2023/10/15 07:25:18;;;;;;;1999.90;999.90;;;8.00;99.90;;;;;;5091660;28;20792;-66
2023/10/15 07:27:48;;;;;;;1999.90;999.90;;;8.00;99.90;;;;;;5091662;28;20404;-68
2023/10/15 07:30:21;;;;;;;1999.90;999.90;;;8.10;99.90;;;;;;5091456;28;20410;-68
2023/10/15 07:32:47;;;;;;;1999.90;999.90;;;8.10;99.90;;;;;;5091665;28;20503;-66
2023/10/15 07:35:14;;;;;;;1999.90;999.90;;;8.20;99.90;;;;;;5091654;28;20926;-67
2023/10/15 07:37:46;;;;;;;1999.90;999.90;;;8.20;99.90;;;;;;5091659;28;20402;-67
2023/10/15 07:40:21;;;;;;;1999.90;999.90;;;8.20;99.90;;;;;;5091354;28;20404;-66
2023/10/15 07:42:49;;;;;;;1999.90;999.90;;;8.30;99.90;;;;;;5091508;28;20928;-67
2023/10/15 07:45:16;;;;;;;1999.90;999.90;;;8.40;99.90;;;;;;5091598;28;20459;-66
2023/10/15 07:47:42;;;;;;;1999.90;999.90;;;8.50;99.90;;;;;;5090518;28;20428;-66
2023/10/15 07:50:09;;;;;;;1999.90;999.90;;;8.60;99.90;;;;;;5091446;28;21156;-66
2023/10/15 07:52:37;;;;;;;1999.90;999.90;;;8.80;99.90;;;;;;5094650;28;20676;-65
2023/10/15 07:55:05;;;;;;;1999.90;999.90;;;8.80;99.90;;;;;;5095626;28;20502;-66
2023/10/15 07:57:31;;;;;;;1999.90;999.90;;;8.80;99.90;;;;;;5103603;28;20422;-67
2023/10/15 07:59:58;;;;;;;1999.90;999.90;;;8.90;99.90;;;;;;5108865;28;20467;-67
2023/10/15 08:02:27;;;;;;;1999.90;999.90;;;8.90;99.90;;;;;;5109616;28;20306;-69
2023/10/15 08:04:56;;;;;;;1999.90;999.90;;;8.70;99.90;;;;;;5099684;28;20403;-67
2023/10/15 08:07:22;;;;;;;1999.90;999.90;;;8.80;99.90;;;;;;5096544;28;20407;-68
2023/10/15 08:09:51;;;;;;;1999.90;999.90;;;8.70;99.90;;;;;;5090918;28;20517;-66
2023/10/15 08:12:17;;;;;;;1999.90;999.90;;;8.70;99.90;;;;;;5092358;28;20441;-68
2023/10/15 08:14:47;;;;;;;1999.90;999.90;;;8.70;99.90;;;;;;5103531;28;20413;-69
2023/10/15 08:17:15;;;;;;;1999.90;999.90;;;8.60;99.90;;;;;;5102379;28;20776;-67
2023/10/15 08:19:42;;;;;;;1999.90;999.90;;;8.40;99.90;;;;;;5106512;28;20432;-68
2023/10/15 08:22:08;;;;;;;1999.90;999.90;;;8.10;99.90;;;;;;5115213;28;20475;-68
2023/10/15 08:24:35;;;;;;;1999.90;999.90;;;7.90;99.90;;;;;;5115434;28;20174;-68
2023/10/15 08:27:01;;;;;;;1999.90;999.90;;;7.70;99.90;;;;;;5115183;28;20489;-67
2023/10/15 08:29:26;;;;;;;1999.90;999.90;;;7.70;99.90;;;;;;5114981;28;20907;-67
2023/10/15 08:31:52;;;;;;;1999.90;999.90;;;7.70;99.90;;;;;;5114984;28;20198;-67
2023/10/15 08:34:18;;;;;;;1999.90;999.90;;;7.80;99.90;;;;;;5114694;28;20173;-68
2023/10/15 08:36:43;;;;;;;1999.90;999.90;;;7.70;99.90;;;;;;5106202;28;20172;-67
2023/10/15 08:39:09;;;;;;;1999.90;999.90;;;7.80;99.90;;;;;;5114753;28;20258;-67
2023/10/15 08:41:43;;;;;;;1999.90;999.90;;;7.90;99.90;;;;;;5114942;28;20221;-68
2023/10/15 08:44:10;;;;;;;1999.90;999.90;;;8.00;99.90;;;;;;5114881;28;20260;-69
2023/10/15 08:46:39;;;;;;;1999.90;999.90;;;8.10;99.90;;;;;;5114565;28;20669;-68
2023/10/15 08:49:08;;;;;;;1999.90;999.90;;;8.20;99.90;;;;;;5114784;28;20755;-67
2023/10/15 08:51:35;;;;;;;1999.90;999.90;;;8.20;99.90;;;;;;5114739;28;20431;-68
2023/10/15 08:54:14;;;;;;;1999.90;999.90;;;8.30;99.90;;;;;;5114843;27;20434;-68
2023/10/15 08:56:40;;;;;;;1999.90;999.90;;;8.50;99.90;;;;;;5114673;28;20415;-67
2023/10/15 08:59:09;;;;;;;1999.90;999.90;;;8.60;99.90;;;;;;5114357;28;20420;-68
2023/10/15 09:01:36;;;;;;;1999.90;999.90;;;8.70;99.90;;;;;;5114500;28;20492;-67
2023/10/15 09:04:04;;;;;;;1999.90;999.90;;;8.80;99.90;;;;;;5114465;28;20411;-68
2023/10/15 09:06:30;;;;;;;1999.90;999.90;;;8.90;99.90;;;;;;5114319;28;20461;-66
2023/10/15 09:08:56;;;;;;;1999.90;999.90;;;8.80;99.90;;;;;;5114267;28;20893;-67
2023/10/15 09:11:21;;;;;;;1999.90;999.90;;;8.90;99.90;;;;;;5114180;28;20453;-67
2023/10/15 09:13:51;;;;;;;1999.90;999.90;;;8.90;99.90;;;;;;5114441;28;20173;-68
2023/10/15 09:16:17;;;;;;;1999.90;999.90;;;9.00;99.90;;;;;;5114415;28;20245;-68
2023/10/15 09:18:44;;;;;;;1999.90;999.90;;;9.00;99.90;;;;;;5114009;28;20895;-67
2023/10/15 09:21:10;;;;;;;1999.90;999.90;;;9.20;99.90;;;;;;5114083;28;20427;-67
2023/10/15 09:23:37;;;;;;;1999.90;999.90;;;9.30;99.90;;;;;;5114132;28;20970;-68
2023/10/15 09:26:10;;;;;;;1999.90;999.90;;;9.30;99.90;;;;;;5105444;28;20290;-68
2023/10/15 09:28:36;;;;;;;1999.90;999.90;;;9.40;99.90;;;;;;5105272;28;20434;-67
2023/10/15 09:31:11;;;;;;;1999.90;999.90;;;9.50;99.90;;;;;;5113960;28;20425;-67
2023/10/15 09:33:38;;;;;;;1999.90;999.90;;;9.50;99.90;;;;;;5113979;28;20410;-67
2023/10/15 09:36:07;;;;;;;1999.90;999.90;;;9.70;99.90;;;;;;5113819;28;20410;-69
2023/10/15 09:38:34;;;;;;;1999.90;999.90;;;9.70;99.90;;;;;;5113817;28;20922;-66
2023/10/15 09:41:05;;;;;;;1999.90;999.90;;;9.80;99.90;;;;;;5113805;28;20555;-68
2023/10/15 09:43:31;;;;;;;1999.90;999.90;;;9.90;99.90;;;;;;5113746;28;20409;-66
2023/10/15 09:46:00;;;;;;;1999.90;999.90;;;9.90;99.90;;;;;;5111594;28;20453;-66
2023/10/15 09:48:26;;;;;;;1999.90;999.90;;;9.90;99.90;;;;;;5113081;28;20404;-67
2023/10/15 09:50:59;;;;;;;1999.90;999.90;;;9.80;99.90;;;;;;5113283;28;20429;-67
2023/10/15 09:53:27;;;;;;;1999.90;999.90;;;10.00;99.90;;;;;;5112884;28;20493;-67
2023/10/15 09:55:55;;;;;;;1999.90;999.90;;;10.00;99.90;;;;;;5113101;28;20488;-68
2023/10/15 09:58:22;;;;;;;1999.90;999.90;;;10.10;99.90;;;;;;5112803;28;20396;-67
2023/10/15 10:03:37;;;;;;;1999.90;999.90;;;10.00;99.90;;;;;;5112978;28;20933;-67
2023/10/15 10:06:24;;;;;;;1999.90;999.90;;;9.90;99.90;;;;;;5112683;28;20569;-66
2023/10/15 10:08:56;;;;;;;1999.90;999.90;;;9.90;99.90;;;;;;5112762;28;20406;-67
2023/10/15 10:11:54;;;;;;;1999.90;999.90;;;9.70;99.90;;;;;;5112769;28;20952;-67
2023/10/15 10:14:47;;;;;;;1999.90;999.90;;;9.60;99.90;;;;;;5109138;28;20547;-67
2023/10/15 10:17:14;;;;;;;1999.90;999.90;;;9.60;99.90;;;;;;5112740;28;20403;-67
2023/10/15 10:19:41;;;;;;;1999.90;999.90;;;9.60;99.90;;;;;;5112575;28;20776;-68
2023/10/15 10:22:22;;;;;;;1999.90;999.90;;;9.50;99.90;;;;;;5112533;28;20433;-67
2023/10/15 10:24:48;;;;;;;1999.90;999.90;;;9.40;99.90;;;;;;5112538;28;20415;-66
2023/10/15 10:27:15;;;;;;;1999.90;999.90;;;9.40;99.90;;;;;;5112767;28;20864;-66
2023/10/15 10:29:43;;;;;;;1999.90;999.90;;;9.30;99.90;;;;;;5112449;28;20218;-67
2023/10/15 10:32:13;;;;;;;1999.90;999.90;;;9.30;99.90;;;;;;5112525;28;20427;-66
2023/10/15 10:34:40;;;;;;;1999.90;999.90;;;9.30;99.90;;;;;;5112362;28;20502;-67
2023/10/15 10:37:20;;;;;;;1999.90;999.90;;;9.20;99.90;;;;;;5112067;28;20435;-66
2023/10/15 10:39:48;;;;;;;1999.90;999.90;;;9.20;99.90;;;;;;5112173;28;20924;-67
2023/10/15 10:42:26;;;;;;;1999.90;999.90;;;9.30;99.90;;;;;;5112196;28;20455;-67
2023/10/15 10:44:56;;;;;;;1999.90;999.90;;;9.40;99.90;;;;;;5111985;28;20458;-67
2023/10/15 10:47:33;;;;;;;1999.90;999.90;;;9.50;99.90;;;;;;5112153;28;20437;-67
2023/10/15 10:50:03;;;;;;;1999.90;999.90;;;9.60;99.90;;;;;;5112314;28;20458;-66
2023/10/15 10:52:33;;;;;;;1999.90;999.90;;;9.70;99.90;;;;;;5111906;28;20441;-67
2023/10/15 10:55:33;;;;;;;1999.90;999.90;;;9.70;99.90;;;;;;5112272;28;20410;-67
2023/10/15 10:58:03;;;;;;;1999.90;999.90;;;9.60;99.90;;;;;;5111669;28;20438;-66
2023/10/15 11:00:30;;;;;;;1999.90;999.90;;;9.60;99.90;;;;;;5111990;28;20447;-67
2023/10/15 11:02:58;;;;;;;1999.90;999.90;;;9.60;99.90;;;;;;5112109;28;20458;-67
2023/10/15 11:05:24;;;;;;;1999.90;999.90;;;9.50;99.90;;;;;;5111830;28;20462;-67
2023/10/15 11:07:50;;;;;;;1999.90;999.90;;;9.50;99.90;;;;;;5112058;28;20894;-67
2023/10/15 11:10:17;;;;;;;1999.90;999.90;;;9.30;99.90;;;;;;5111967;28;20180;-68
2023/10/15 11:12:46;;;;;;;1999.90;999.90;;;9.10;99.90;;;;;;5111893;28;20188;-66
2023/10/15 11:15:14;;;;;;;1999.90;999.90;;;9.00;99.90;;;;;;5111792;28;20398;-67
2023/10/15 11:17:56;;;;;;;1999.90;999.90;;;8.90;99.90;;;;;;5111988;28;20397;-67
2023/10/15 11:20:25;;;;;;;1999.90;999.90;;;8.80;99.90;;;;;;5111528;28;20479;-67
2023/10/15 11:22:51;;;;;;;1999.90;999.90;;;8.70;99.90;;;;;;5111740;28;20482;-67
2023/10/15 11:25:19;;;;;;;1999.90;999.90;;;8.60;99.90;;;;;;5113873;28;20461;-67
2023/10/15 11:27:45;;;;;;;1999.90;999.90;;;8.50;99.90;;;;;;5115966;28;20198;-66
2023/10/15 11:30:11;;;;;;;1999.90;999.90;;;8.60;99.90;;;;;;5115849;28;20400;-67
2023/10/15 11:32:37;;;;;;;1999.90;999.90;;;8.60;99.90;;;;;;5115886;28;20266;-66
2023/10/15 11:35:06;;;;;;;1999.90;999.90;;;8.70;99.90;;;;;;5115734;28;20402;-67
2023/10/15 11:37:35;;;;;;;1999.90;999.90;;;8.90;99.90;;;;;;5115717;28;20488;-67
2023/10/15 11:40:00;;;;;;;1999.90;999.90;;;9.10;99.90;;;;;;5115800;28;20414;-67
2023/10/15 11:42:28;;;;;;;1999.90;999.90;;;9.20;99.90;;;;;;5115498;28;20428;-67
2023/10/15 11:44:56;;;;;;;1999.90;999.90;;;9.30;99.90;;;;;;5115965;28;20208;-66
2023/10/15 11:47:24;;;;;;;1999.90;999.90;;;9.30;99.90;;;;;;5115738;28;20763;-66
2023/10/15 11:49:50;;;;;;;1999.90;999.90;;;9.60;99.90;;;;;;5115145;28;20412;-67
2023/10/15 11:52:18;;;;;;;1999.90;999.90;;;9.90;99.90;;;;;;5115681;28;20435;-68
2023/10/15 11:54:50;;;;;;;1999.90;999.90;;;10.10;99.90;;;;;;5115655;28;20415;-67
2023/10/15 11:57:23;;;;;;;1999.90;999.90;;;10.30;99.90;;;;;;5115275;28;20894;-68
2023/10/15 11:59:49;;;;;;;1999.90;999.90;;;10.50;99.90;;;;;;5115359;28;20434;-67
2023/10/15 12:02:15;;;;;;;1999.90;999.90;;;10.60;99.90;;;;;;5115366;28;20430;-67
2023/10/15 12:04:41;;;;;;;1999.90;999.90;;;10.80;99.90;;;;;;5115034;28;20415;-67
2023/10/15 12:07:15;;;;;;;1999.90;999.90;;;11.00;99.90;;;;;;5115435;28;20198;-66
2023/10/15 12:09:47;;;;;;;1999.90;999.90;;;10.90;99.90;;;;;;5115197;28;20192;-67
2023/10/15 12:12:13;;;;;;;1999.90;999.90;;;11.20;99.90;;;;;;5114984;28;20545;-68
2023/10/15 12:14:39;;;;;;;1999.90;999.90;;;11.30;99.90;;;;;;5115333;28;20394;-67
2023/10/15 12:17:04;;;;;;;1999.90;999.90;;;11.20;99.90;;;;;;5115114;28;20411;-67
2023/10/15 12:19:31;;;;;;;1999.90;999.90;;;11.10;99.90;;;;;;5114971;28;20178;-66
2023/10/15 12:21:59;;;;;;;1999.90;999.90;;;11.10;99.90;;;;;;5115122;28;20196;-68
2023/10/15 12:24:25;;;;;;;1999.90;999.90;;;11.20;99.90;;;;;;5115083;28;20419;-67
2023/10/15 12:26:51;;;;;;;1999.90;999.90;;;11.40;99.90;;;;;;5114622;28;20451;-67
2023/10/15 12:29:17;;;;;;;1999.90;999.90;;;11.40;99.90;;;;;;5114670;28;20396;-67
2023/10/15 12:31:43;;;;;;;1999.90;999.90;;;11.40;99.90;;;;;;5114627;28;20229;-67